sensor_id;sensor_type;location;lat;lon;timestamp;P1;durP1;ratioP1;P2;durP2;ratioP2
46875;SDS011;32866;50.160;14.768;2022-11-30T00:00:33;30.13;;;15.07;;
46875;SDS011;32866;50.160;14.768;2022-11-30T00:02:59;33.22;;;16.52;;
46875;SDS011;32866;50.160;14.768;2022-11-30T00:05:24;27.35;;;16.15;;
46875;SDS011;32866;50.160;14.768;2022-11-30T00:07:49;34.47;;;16.50;;
46875;SDS011;32866;50.160;14.768;2022-11-30T00:10:15;30.17;;;15.98;;
46875;SDS011;32866;50.160;14.768;2022-11-30T00:12:40;29.73;;;18.23;;
46875;SDS011;32866;50.160;14.768;2022-11-30T00:15:07;27.15;;;15.85;;
46875;SDS011;32866;50.160;14.768;2022-11-30T00:17:38;30.23;;;16.43;;
46875;SDS011;32866;50.160;14.768;2022-11-30T00:20:04;32.60;;;15.98;;
46875;SDS011;32866;50.160;14.768;2022-11-30T00:22:30;26.45;;;15.07;;
46875;SDS011;32866;50.160;14.768;2022-11-30T00:24:55;27.27;;;16.13;;
46875;SDS011;32866;50.160;14.768;2022-11-30T00:27:23;30.10;;;16.93;;
46875;SDS011;32866;50.160;14.768;2022-11-30T00:29:49;36.03;;;17.30;;
46875;SDS011;32866;50.160;14.768;2022-11-30T00:32:14;33.53;;;17.75;;
46875;SDS011;32866;50.160;14.768;2022-11-30T00:34:39;34.13;;;17.58;;
46875;SDS011;32866;50.160;14.768;2022-11-30T00:37:05;30.05;;;16.17;;
46875;SDS011;32866;50.160;14.768;2022-11-30T00:39:30;29.02;;;15.95;;
46875;SDS011;32866;50.160;14.768;2022-11-30T00:41:55;35.75;;;17.88;;
46875;SDS011;32866;50.160;14.768;2022-11-30T00:44:21;30.60;;;17.30;;
46875;SDS011;32866;50.160;14.768;2022-11-30T00:46:46;32.70;;;16.98;;
46875;SDS011;32866;50.160;14.768;2022-11-30T00:49:11;30.10;;;15.95;;
46875;SDS011;32866;50.160;14.768;2022-11-30T00:51:37;26.25;;;15.57;;
46875;SDS011;32866;50.160;14.768;2022-11-30T00:54:03;28.20;;;16.10;;
46875;SDS011;32866;50.160;14.768;2022-11-30T00:56:28;29.30;;;16.33;;
46875;SDS011;32866;50.160;14.768;2022-11-30T00:58:53;30.85;;;16.42;;
46875;SDS011;32866;50.160;14.768;2022-11-30T01:01:19;34.17;;;15.75;;
46875;SDS011;32866;50.160;14.768;2022-11-30T01:03:44;38.08;;;17.85;;
46875;SDS011;32866;50.160;14.768;2022-11-30T01:06:10;30.25;;;16.08;;
46875;SDS011;32866;50.160;14.768;2022-11-30T01:08:35;24.83;;;16.10;;
46875;SDS011;32866;50.160;14.768;2022-11-30T01:11:04;32.45;;;16.40;;
46875;SDS011;32866;50.160;14.768;2022-11-30T01:13:36;30.17;;;17.20;;
46875;SDS011;32866;50.160;14.768;2022-11-30T01:16:06;31.42;;;16.42;;
46875;SDS011;32866;50.160;14.768;2022-11-30T01:18:35;28.00;;;15.30;;
46875;SDS011;32866;50.160;14.768;2022-11-30T01:21:04;28.50;;;15.90;;
46875;SDS011;32866;50.160;14.768;2022-11-30T01:23:30;25.97;;;14.53;;
46875;SDS011;32866;50.160;14.768;2022-11-30T01:25:55;28.70;;;15.75;;
46875;SDS011;32866;50.160;14.768;2022-11-30T01:28:21;28.75;;;14.27;;
46875;SDS011;32866;50.160;14.768;2022-11-30T01:30:54;29.40;;;16.70;;
46875;SDS011;32866;50.160;14.768;2022-11-30T01:33:23;28.10;;;15.93;;
46875;SDS011;32866;50.160;14.768;2022-11-30T01:35:56;30.75;;;14.35;;
46875;SDS011;32866;50.160;14.768;2022-11-30T01:38:35;27.70;;;15.07;;
46875;SDS011;32866;50.160;14.768;2022-11-30T01:41:03;32.23;;;16.93;;
46875;SDS011;32866;50.160;14.768;2022-11-30T01:43:36;32.87;;;16.17;;
46875;SDS011;32866;50.160;14.768;2022-11-30T01:51:54;36.00;;;17.43;;
46875;SDS011;32866;50.160;14.768;2022-11-30T01:59:44;33.60;;;17.57;;
46875;SDS011;32866;50.160;14.768;2022-11-30T02:02:09;35.25;;;17.13;;
46875;SDS011;32866;50.160;14.768;2022-11-30T02:04:35;29.67;;;16.10;;
46875;SDS011;32866;50.160;14.768;2022-11-30T02:07:02;29.90;;;16.63;;
46875;SDS011;32866;50.160;14.768;2022-11-30T02:09:29;36.10;;;16.83;;
46875;SDS011;32866;50.160;14.768;2022-11-30T02:11:58;35.97;;;17.63;;
46875;SDS011;32866;50.160;14.768;2022-11-30T02:25:24;35.87;;;16.93;;
46875;SDS011;32866;50.160;14.768;2022-11-30T02:30:22;29.27;;;18.03;;
46875;SDS011;32866;50.160;14.768;2022-11-30T02:35:18;32.87;;;18.27;;
46875;SDS011;32866;50.160;14.768;2022-11-30T02:37:46;30.60;;;17.63;;
46875;SDS011;32866;50.160;14.768;2022-11-30T02:40:14;31.60;;;17.57;;
46875;SDS011;32866;50.160;14.768;2022-11-30T02:42:41;36.93;;;18.60;;
46875;SDS011;32866;50.160;14.768;2022-11-30T02:45:07;37.30;;;18.65;;
46875;SDS011;32866;50.160;14.768;2022-11-30T02:47:40;34.50;;;18.67;;
46875;SDS011;32866;50.160;14.768;2022-11-30T02:50:20;33.30;;;17.37;;
46875;SDS011;32866;50.160;14.768;2022-11-30T02:52:49;31.43;;;17.37;;
46875;SDS011;32866;50.160;14.768;2022-11-30T02:55:16;37.70;;;19.27;;
46875;SDS011;32866;50.160;14.768;2022-11-30T02:57:43;35.63;;;17.17;;
46875;SDS011;32866;50.160;14.768;2022-11-30T03:00:09;39.58;;;18.48;;
46875;SDS011;32866;50.160;14.768;2022-11-30T03:02:35;40.17;;;19.87;;
46875;SDS011;32866;50.160;14.768;2022-11-30T03:05:01;30.83;;;17.58;;
46875;SDS011;32866;50.160;14.768;2022-11-30T03:07:26;36.97;;;19.13;;
46875;SDS011;32866;50.160;14.768;2022-11-30T03:09:52;40.22;;;18.13;;
46875;SDS011;32866;50.160;14.768;2022-11-30T03:12:17;34.03;;;18.98;;
46875;SDS011;32866;50.160;14.768;2022-11-30T03:14:42;34.08;;;18.92;;
46875;SDS011;32866;50.160;14.768;2022-11-30T03:17:08;37.17;;;18.98;;
46875;SDS011;32866;50.160;14.768;2022-11-30T03:19:33;41.00;;;20.13;;
46875;SDS011;32866;50.160;14.768;2022-11-30T03:21:59;33.58;;;16.90;;
46875;SDS011;32866;50.160;14.768;2022-11-30T03:24:24;33.97;;;18.58;;
46875;SDS011;32866;50.160;14.768;2022-11-30T03:26:50;34.10;;;18.02;;
46875;SDS011;32866;50.160;14.768;2022-11-30T03:29:16;33.15;;;18.75;;
46875;SDS011;32866;50.160;14.768;2022-11-30T03:31:41;33.35;;;18.83;;
46875;SDS011;32866;50.160;14.768;2022-11-30T03:34:06;35.55;;;19.25;;
46875;SDS011;32866;50.160;14.768;2022-11-30T03:36:32;36.90;;;18.52;;
46875;SDS011;32866;50.160;14.768;2022-11-30T03:38:57;42.35;;;20.33;;
46875;SDS011;32866;50.160;14.768;2022-11-30T03:41:23;33.58;;;18.88;;
46875;SDS011;32866;50.160;14.768;2022-11-30T03:43:48;36.85;;;18.63;;
46875;SDS011;32866;50.160;14.768;2022-11-30T03:46:13;38.13;;;21.00;;
46875;SDS011;32866;50.160;14.768;2022-11-30T03:48:39;41.17;;;20.27;;
46875;SDS011;32866;50.160;14.768;2022-11-30T03:51:07;41.57;;;20.20;;
46875;SDS011;32866;50.160;14.768;2022-11-30T03:53:34;36.63;;;19.33;;
46875;SDS011;32866;50.160;14.768;2022-11-30T03:56:01;41.55;;;20.00;;
46875;SDS011;32866;50.160;14.768;2022-11-30T03:58:28;39.93;;;21.03;;
46875;SDS011;32866;50.160;14.768;2022-11-30T04:01:01;37.25;;;18.98;;
46875;SDS011;32866;50.160;14.768;2022-11-30T04:03:34;43.50;;;21.83;;
46875;SDS011;32866;50.160;14.768;2022-11-30T04:06:01;36.93;;;19.53;;
46875;SDS011;32866;50.160;14.768;2022-11-30T04:08:27;41.53;;;20.65;;
46875;SDS011;32866;50.160;14.768;2022-11-30T04:10:53;32.13;;;19.17;;
46875;SDS011;32866;50.160;14.768;2022-11-30T04:13:20;38.87;;;20.97;;
46875;SDS011;32866;50.160;14.768;2022-11-30T04:15:46;37.20;;;18.03;;
46875;SDS011;32866;50.160;14.768;2022-11-30T04:18:13;35.87;;;19.97;;
46875;SDS011;32866;50.160;14.768;2022-11-30T04:20:39;37.63;;;20.00;;
46875;SDS011;32866;50.160;14.768;2022-11-30T04:25:31;32.70;;;18.10;;
46875;SDS011;32866;50.160;14.768;2022-11-30T04:27:56;39.05;;;21.08;;
46875;SDS011;32866;50.160;14.768;2022-11-30T04:30:21;38.95;;;21.73;;
46875;SDS011;32866;50.160;14.768;2022-11-30T04:32:47;44.28;;;21.67;;
46875;SDS011;32866;50.160;14.768;2022-11-30T04:35:12;36.05;;;20.42;;
46875;SDS011;32866;50.160;14.768;2022-11-30T04:37:38;39.70;;;20.15;;
46875;SDS011;32866;50.160;14.768;2022-11-30T04:40:03;41.63;;;19.00;;
46875;SDS011;32866;50.160;14.768;2022-11-30T04:42:29;36.77;;;21.10;;
46875;SDS011;32866;50.160;14.768;2022-11-30T04:44:55;45.10;;;21.98;;
46875;SDS011;32866;50.160;14.768;2022-11-30T04:47:20;46.65;;;22.33;;
46875;SDS011;32866;50.160;14.768;2022-11-30T04:49:45;35.80;;;20.42;;
46875;SDS011;32866;50.160;14.768;2022-11-30T04:52:11;45.25;;;22.05;;
46875;SDS011;32866;50.160;14.768;2022-11-30T04:54:36;43.30;;;21.63;;
46875;SDS011;32866;50.160;14.768;2022-11-30T04:57:01;45.65;;;23.17;;
46875;SDS011;32866;50.160;14.768;2022-11-30T04:59:27;51.42;;;23.67;;
46875;SDS011;32866;50.160;14.768;2022-11-30T05:01:52;46.35;;;21.67;;
46875;SDS011;32866;50.160;14.768;2022-11-30T05:04:18;47.13;;;22.98;;
46875;SDS011;32866;50.160;14.768;2022-11-30T05:06:43;39.88;;;21.88;;
46875;SDS011;32866;50.160;14.768;2022-11-30T05:09:09;46.72;;;23.30;;
46875;SDS011;32866;50.160;14.768;2022-11-30T05:11:34;42.85;;;20.13;;
46875;SDS011;32866;50.160;14.768;2022-11-30T05:13:59;33.75;;;19.77;;
46875;SDS011;32866;50.160;14.768;2022-11-30T05:16:25;43.80;;;21.63;;
46875;SDS011;32866;50.160;14.768;2022-11-30T05:18:50;38.58;;;20.50;;
46875;SDS011;32866;50.160;14.768;2022-11-30T05:21:15;40.42;;;20.45;;
46875;SDS011;32866;50.160;14.768;2022-11-30T05:23:41;44.42;;;22.20;;
46875;SDS011;32866;50.160;14.768;2022-11-30T05:26:07;35.30;;;18.40;;
46875;SDS011;32866;50.160;14.768;2022-11-30T05:28:33;48.05;;;22.02;;
46875;SDS011;32866;50.160;14.768;2022-11-30T05:33:28;36.63;;;19.37;;
46875;SDS011;32866;50.160;14.768;2022-11-30T05:35:53;49.75;;;22.13;;
46875;SDS011;32866;50.160;14.768;2022-11-30T05:38:19;42.75;;;21.23;;
46875;SDS011;32866;50.160;14.768;2022-11-30T05:40:44;37.13;;;20.45;;
46875;SDS011;32866;50.160;14.768;2022-11-30T05:43:09;42.33;;;23.27;;
46875;SDS011;32866;50.160;14.768;2022-11-30T05:45:35;49.28;;;20.80;;
46875;SDS011;32866;50.160;14.768;2022-11-30T05:48:00;39.90;;;21.38;;
46875;SDS011;32866;50.160;14.768;2022-11-30T05:50:26;42.03;;;19.88;;
46875;SDS011;32866;50.160;14.768;2022-11-30T05:52:54;41.03;;;20.52;;
46875;SDS011;32866;50.160;14.768;2022-11-30T05:55:24;42.70;;;21.60;;
46875;SDS011;32866;50.160;14.768;2022-11-30T05:57:52;35.40;;;21.43;;
46875;SDS011;32866;50.160;14.768;2022-11-30T06:00:18;38.75;;;20.60;;
46875;SDS011;32866;50.160;14.768;2022-11-30T06:02:44;41.17;;;20.97;;
46875;SDS011;32866;50.160;14.768;2022-11-30T06:05:10;39.80;;;21.10;;
46875;SDS011;32866;50.160;14.768;2022-11-30T06:07:37;46.70;;;22.17;;
46875;SDS011;32866;50.160;14.768;2022-11-30T06:10:03;40.97;;;22.17;;
46875;SDS011;32866;50.160;14.768;2022-11-30T06:12:29;45.13;;;22.38;;
46875;SDS011;32866;50.160;14.768;2022-11-30T06:14:54;40.88;;;21.30;;
46875;SDS011;32866;50.160;14.768;2022-11-30T06:17:19;47.20;;;23.48;;
46875;SDS011;32866;50.160;14.768;2022-11-30T06:19:45;36.67;;;21.10;;
46875;SDS011;32866;50.160;14.768;2022-11-30T06:22:10;41.40;;;22.67;;
46875;SDS011;32866;50.160;14.768;2022-11-30T06:24:35;46.78;;;22.38;;
46875;SDS011;32866;50.160;14.768;2022-11-30T06:27:01;37.60;;;20.73;;
46875;SDS011;32866;50.160;14.768;2022-11-30T06:29:26;39.28;;;21.50;;
46875;SDS011;32866;50.160;14.768;2022-11-30T06:31:52;44.95;;;21.38;;
46875;SDS011;32866;50.160;14.768;2022-11-30T06:34:17;47.75;;;21.83;;
46875;SDS011;32866;50.160;14.768;2022-11-30T06:36:42;35.75;;;21.58;;
46875;SDS011;32866;50.160;14.768;2022-11-30T06:39:09;45.10;;;22.67;;
46875;SDS011;32866;50.160;14.768;2022-11-30T06:41:35;48.47;;;23.30;;
46875;SDS011;32866;50.160;14.768;2022-11-30T06:44:00;46.03;;;23.20;;
46875;SDS011;32866;50.160;14.768;2022-11-30T06:46:25;45.03;;;22.45;;
46875;SDS011;32866;50.160;14.768;2022-11-30T06:48:52;52.37;;;23.67;;
46875;SDS011;32866;50.160;14.768;2022-11-30T06:51:17;50.92;;;24.17;;
46875;SDS011;32866;50.160;14.768;2022-11-30T06:53:43;49.42;;;23.08;;
46875;SDS011;32866;50.160;14.768;2022-11-30T06:56:10;49.83;;;24.07;;
46875;SDS011;32866;50.160;14.768;2022-11-30T06:58:36;46.60;;;23.10;;
46875;SDS011;32866;50.160;14.768;2022-11-30T07:01:06;41.93;;;22.53;;
46875;SDS011;32866;50.160;14.768;2022-11-30T07:03:34;51.37;;;25.37;;
46875;SDS011;32866;50.160;14.768;2022-11-30T07:05:59;49.60;;;24.20;;
46875;SDS011;32866;50.160;14.768;2022-11-30T07:08:25;45.20;;;25.20;;
46875;SDS011;32866;50.160;14.768;2022-11-30T07:10:50;48.58;;;23.67;;
46875;SDS011;32866;50.160;14.768;2022-11-30T07:13:16;45.47;;;22.90;;
46875;SDS011;32866;50.160;14.768;2022-11-30T07:15:43;49.63;;;24.10;;
46875;SDS011;32866;50.160;14.768;2022-11-30T07:18:09;55.17;;;25.30;;
46875;SDS011;32866;50.160;14.768;2022-11-30T07:20:35;46.72;;;24.77;;
46875;SDS011;32866;50.160;14.768;2022-11-30T07:23:01;51.77;;;25.37;;
46875;SDS011;32866;50.160;14.768;2022-11-30T07:25:46;53.90;;;24.80;;
46875;SDS011;32866;50.160;14.768;2022-11-30T07:28:34;46.47;;;24.93;;
46875;SDS011;32866;50.160;14.768;2022-11-30T07:31:14;59.93;;;26.97;;
46875;SDS011;32866;50.160;14.768;2022-11-30T07:33:43;46.40;;;24.70;;
46875;SDS011;32866;50.160;14.768;2022-11-30T07:36:09;46.70;;;25.08;;
46875;SDS011;32866;50.160;14.768;2022-11-30T07:38:35;54.08;;;25.02;;
46875;SDS011;32866;50.160;14.768;2022-11-30T07:41:00;48.58;;;24.40;;
46875;SDS011;32866;50.160;14.768;2022-11-30T07:43:26;52.05;;;24.88;;
46875;SDS011;32866;50.160;14.768;2022-11-30T07:45:53;52.07;;;25.97;;
46875;SDS011;32866;50.160;14.768;2022-11-30T07:50:45;46.07;;;23.60;;
46875;SDS011;32866;50.160;14.768;2022-11-30T07:53:10;49.77;;;26.43;;
46875;SDS011;32866;50.160;14.768;2022-11-30T07:55:36;53.28;;;26.27;;
46875;SDS011;32866;50.160;14.768;2022-11-30T07:58:01;50.67;;;27.10;;
46875;SDS011;32866;50.160;14.768;2022-11-30T08:00:26;54.53;;;28.63;;
46875;SDS011;32866;50.160;14.768;2022-11-30T08:02:52;51.83;;;26.25;;
46875;SDS011;32866;50.160;14.768;2022-11-30T08:05:17;54.65;;;26.73;;
46875;SDS011;32866;50.160;14.768;2022-11-30T08:07:43;49.85;;;24.38;;
46875;SDS011;32866;50.160;14.768;2022-11-30T08:10:09;46.93;;;25.00;;
46875;SDS011;32866;50.160;14.768;2022-11-30T08:15:01;39.80;;;20.90;;
46875;SDS011;32866;50.160;14.768;2022-11-30T08:17:26;43.25;;;22.30;;
46875;SDS011;32866;50.160;14.768;2022-11-30T08:19:51;40.67;;;22.13;;
46875;SDS011;32866;50.160;14.768;2022-11-30T08:22:17;38.08;;;21.83;;
46875;SDS011;32866;50.160;14.768;2022-11-30T08:24:42;48.05;;;21.13;;
46875;SDS011;32866;50.160;14.768;2022-11-30T08:27:07;37.92;;;20.85;;
46875;SDS011;32866;50.160;14.768;2022-11-30T08:29:33;42.40;;;23.38;;
46875;SDS011;32866;50.160;14.768;2022-11-30T08:31:58;43.03;;;21.83;;
46875;SDS011;32866;50.160;14.768;2022-11-30T08:34:23;34.78;;;20.27;;
46875;SDS011;32866;50.160;14.768;2022-11-30T08:36:50;38.37;;;20.97;;
46875;SDS011;32866;50.160;14.768;2022-11-30T08:39:16;36.30;;;21.35;;
46875;SDS011;32866;50.160;14.768;2022-11-30T08:41:41;38.08;;;21.52;;
46875;SDS011;32866;50.160;14.768;2022-11-30T08:44:07;42.75;;;21.00;;
46875;SDS011;32866;50.160;14.768;2022-11-30T08:46:32;39.67;;;23.15;;
46875;SDS011;32866;50.160;14.768;2022-11-30T08:48:58;44.60;;;23.55;;
46875;SDS011;32866;50.160;14.768;2022-11-30T08:51:23;46.25;;;24.13;;
46875;SDS011;32866;50.160;14.768;2022-11-30T08:53:49;37.17;;;20.83;;
46875;SDS011;32866;50.160;14.768;2022-11-30T08:56:18;43.65;;;21.77;;
46875;SDS011;32866;50.160;14.768;2022-11-30T08:58:51;41.87;;;22.23;;
46875;SDS011;32866;50.160;14.768;2022-11-30T09:01:20;42.10;;;22.13;;
46875;SDS011;32866;50.160;14.768;2022-11-30T09:03:48;41.70;;;23.47;;
46875;SDS011;32866;50.160;14.768;2022-11-30T09:06:19;40.07;;;22.20;;
46875;SDS011;32866;50.160;14.768;2022-11-30T09:08:46;39.47;;;23.27;;
46875;SDS011;32866;50.160;14.768;2022-11-30T09:11:17;44.20;;;24.53;;
46875;SDS011;32866;50.160;14.768;2022-11-30T09:13:44;42.07;;;22.97;;
46875;SDS011;32866;50.160;14.768;2022-11-30T09:16:10;39.10;;;21.77;;
46875;SDS011;32866;50.160;14.768;2022-11-30T09:18:37;36.53;;;21.77;;
46875;SDS011;32866;50.160;14.768;2022-11-30T09:23:29;40.55;;;22.60;;
46875;SDS011;32866;50.160;14.768;2022-11-30T09:25:55;41.58;;;21.02;;
46875;SDS011;32866;50.160;14.768;2022-11-30T09:28:25;45.53;;;22.77;;
46875;SDS011;32866;50.160;14.768;2022-11-30T09:30:51;43.47;;;22.70;;
46875;SDS011;32866;50.160;14.768;2022-11-30T09:33:17;43.97;;;22.77;;
46875;SDS011;32866;50.160;14.768;2022-11-30T09:35:43;44.20;;;22.00;;
46875;SDS011;32866;50.160;14.768;2022-11-30T09:38:09;41.53;;;22.33;;
46875;SDS011;32866;50.160;14.768;2022-11-30T09:40:35;47.70;;;22.45;;
46875;SDS011;32866;50.160;14.768;2022-11-30T09:43:08;38.73;;;21.40;;
46875;SDS011;32866;50.160;14.768;2022-11-30T09:45:49;35.23;;;18.47;;
46875;SDS011;32866;50.160;14.768;2022-11-30T09:50:59;33.70;;;18.03;;
46875;SDS011;32866;50.160;14.768;2022-11-30T09:53:39;31.83;;;19.90;;
46875;SDS011;32866;50.160;14.768;2022-11-30T09:59:13;34.50;;;19.17;;
46875;SDS011;32866;50.160;14.768;2022-11-30T10:01:44;32.63;;;19.13;;
46875;SDS011;32866;50.160;14.768;2022-11-30T10:04:25;44.50;;;19.23;;
46875;SDS011;32866;50.160;14.768;2022-11-30T10:06:55;32.67;;;19.00;;
46875;SDS011;32866;50.160;14.768;2022-11-30T10:09:37;34.37;;;20.40;;
46875;SDS011;32866;50.160;14.768;2022-11-30T10:12:23;30.17;;;17.60;;
46875;SDS011;32866;50.160;14.768;2022-11-30T10:25:52;25.97;;;16.83;;
46875;SDS011;32866;50.160;14.768;2022-11-30T10:31:11;30.40;;;18.40;;
46875;SDS011;32866;50.160;14.768;2022-11-30T10:33:42;35.13;;;19.23;;
46875;SDS011;32866;50.160;14.768;2022-11-30T10:36:16;33.07;;;19.20;;
46875;SDS011;32866;50.160;14.768;2022-11-30T10:39:03;28.37;;;15.93;;
46875;SDS011;32866;50.160;14.768;2022-11-30T10:41:42;32.20;;;17.27;;
46875;SDS011;32866;50.160;14.768;2022-11-30T10:44:30;33.07;;;17.23;;
46875;SDS011;32866;50.160;14.768;2022-11-30T10:47:11;33.50;;;17.43;;
46875;SDS011;32866;50.160;14.768;2022-11-30T10:49:45;25.33;;;15.67;;
46875;SDS011;32866;50.160;14.768;2022-11-30T10:52:13;31.67;;;17.17;;
46875;SDS011;32866;50.160;14.768;2022-11-30T10:54:42;26.83;;;16.47;;
46875;SDS011;32866;50.160;14.768;2022-11-30T10:57:07;26.05;;;15.75;;
46875;SDS011;32866;50.160;14.768;2022-11-30T11:02:01;28.30;;;17.23;;
46875;SDS011;32866;50.160;14.768;2022-11-30T11:04:27;29.80;;;17.55;;
46875;SDS011;32866;50.160;14.768;2022-11-30T11:06:53;30.58;;;17.38;;
46875;SDS011;32866;50.160;14.768;2022-11-30T11:09:37;26.10;;;16.67;;
46875;SDS011;32866;50.160;14.768;2022-11-30T11:14:41;29.83;;;17.60;;
46875;SDS011;32866;50.160;14.768;2022-11-30T11:19:41;33.70;;;18.70;;
46875;SDS011;32866;50.160;14.768;2022-11-30T11:24:49;29.20;;;16.97;;
46875;SDS011;32866;50.160;14.768;2022-11-30T11:27:26;29.93;;;17.30;;
46875;SDS011;32866;50.160;14.768;2022-11-30T11:29:57;29.73;;;16.93;;
46875;SDS011;32866;50.160;14.768;2022-11-30T11:32:26;33.20;;;17.93;;
46875;SDS011;32866;50.160;14.768;2022-11-30T11:34:52;27.50;;;16.20;;
46875;SDS011;32866;50.160;14.768;2022-11-30T11:37:31;33.67;;;16.95;;
46875;SDS011;32866;50.160;14.768;2022-11-30T11:42:46;33.60;;;18.47;;
46875;SDS011;32866;50.160;14.768;2022-11-30T11:45:17;30.37;;;17.40;;
46875;SDS011;32866;50.160;14.768;2022-11-30T11:47:45;33.63;;;17.87;;
46875;SDS011;32866;50.160;14.768;2022-11-30T11:52:47;29.27;;;17.57;;
46875;SDS011;32866;50.160;14.768;2022-11-30T11:55:15;35.85;;;17.92;;
46875;SDS011;32866;50.160;14.768;2022-11-30T11:57:46;36.67;;;18.07;;
46875;SDS011;32866;50.160;14.768;2022-11-30T12:00:16;37.87;;;18.53;;
46875;SDS011;32866;50.160;14.768;2022-11-30T12:02:47;33.57;;;18.63;;
46875;SDS011;32866;50.160;14.768;2022-11-30T12:05:20;40.67;;;19.40;;
46875;SDS011;32866;50.160;14.768;2022-11-30T12:10:59;34.73;;;19.00;;
46875;SDS011;32866;50.160;14.768;2022-11-30T12:13:33;46.97;;;20.13;;
46875;SDS011;32866;50.160;14.768;2022-11-30T12:21:40;38.03;;;20.63;;
46875;SDS011;32866;50.160;14.768;2022-11-30T12:29:49;31.73;;;18.40;;
46875;SDS011;32866;50.160;14.768;2022-11-30T12:35:04;28.65;;;16.90;;
46875;SDS011;32866;50.160;14.768;2022-11-30T12:37:50;32.13;;;17.43;;
46875;SDS011;32866;50.160;14.768;2022-11-30T12:40:30;30.40;;;17.80;;
46875;SDS011;32866;50.160;14.768;2022-11-30T12:43:15;32.33;;;17.40;;
46875;SDS011;32866;50.160;14.768;2022-11-30T12:46:05;30.13;;;18.63;;
46875;SDS011;32866;50.160;14.768;2022-11-30T12:48:56;30.40;;;18.83;;
46875;SDS011;32866;50.160;14.768;2022-11-30T12:51:50;39.73;;;21.70;;
46875;SDS011;32866;50.160;14.768;2022-11-30T13:05:21;29.50;;;16.43;;
46875;SDS011;32866;50.160;14.768;2022-11-30T13:07:58;28.33;;;17.58;;
46875;SDS011;32866;50.160;14.768;2022-11-30T13:10:42;33.97;;;17.93;;
46875;SDS011;32866;50.160;14.768;2022-11-30T13:13:13;34.57;;;18.00;;
46875;SDS011;32866;50.160;14.768;2022-11-30T13:15:43;26.17;;;14.93;;
46875;SDS011;32866;50.160;14.768;2022-11-30T13:18:10;23.37;;;14.93;;
46875;SDS011;32866;50.160;14.768;2022-11-30T13:26:30;30.63;;;16.30;;
46875;SDS011;32866;50.160;14.768;2022-11-30T13:34:35;28.83;;;16.87;;
46875;SDS011;32866;50.160;14.768;2022-11-30T13:37:02;29.42;;;16.73;;
46875;SDS011;32866;50.160;14.768;2022-11-30T13:39:45;26.70;;;16.63;;
46875;SDS011;32866;50.160;14.768;2022-11-30T13:44:52;28.57;;;16.50;;
46875;SDS011;32866;50.160;14.768;2022-11-30T13:47:25;26.20;;;14.85;;
46875;SDS011;32866;50.160;14.768;2022-11-30T13:49:53;32.70;;;16.17;;
46875;SDS011;32866;50.160;14.768;2022-11-30T14:02:54;25.57;;;14.40;;
46875;SDS011;32866;50.160;14.768;2022-11-30T14:05:23;24.00;;;15.17;;
46875;SDS011;32866;50.160;14.768;2022-11-30T14:20:47;20.87;;;13.47;;
46875;SDS011;32866;50.160;14.768;2022-11-30T14:26:08;29.00;;;14.90;;
46875;SDS011;32866;50.160;14.768;2022-11-30T14:31:15;25.73;;;14.77;;
46875;SDS011;32866;50.160;14.768;2022-11-30T14:36:40;25.97;;;14.17;;
46875;SDS011;32866;50.160;14.768;2022-11-30T14:39:24;24.53;;;14.47;;
46875;SDS011;32866;50.160;14.768;2022-11-30T14:42:01;27.00;;;14.87;;
46875;SDS011;32866;50.160;14.768;2022-11-30T14:44:27;21.73;;;14.53;;
46875;SDS011;32866;50.160;14.768;2022-11-30T14:47:14;26.07;;;15.27;;
46875;SDS011;32866;50.160;14.768;2022-11-30T14:49:49;29.03;;;16.00;;
46875;SDS011;32866;50.160;14.768;2022-11-30T14:52:20;28.93;;;16.60;;
46875;SDS011;32866;50.160;14.768;2022-11-30T14:55:27;25.37;;;15.67;;
46875;SDS011;32866;50.160;14.768;2022-11-30T14:58:05;27.33;;;15.73;;
46875;SDS011;32866;50.160;14.768;2022-11-30T15:00:57;28.00;;;14.93;;
46875;SDS011;32866;50.160;14.768;2022-11-30T15:05:54;25.40;;;14.97;;
46875;SDS011;32866;50.160;14.768;2022-11-30T15:08:23;29.80;;;14.73;;
46875;SDS011;32866;50.160;14.768;2022-11-30T15:10:56;25.97;;;15.97;;
46875;SDS011;32866;50.160;14.768;2022-11-30T15:13:28;23.67;;;13.97;;
46875;SDS011;32866;50.160;14.768;2022-11-30T15:15:54;24.88;;;14.30;;
46875;SDS011;32866;50.160;14.768;2022-11-30T15:18:23;28.63;;;16.35;;
46875;SDS011;32866;50.160;14.768;2022-11-30T15:21:04;30.87;;;16.60;;
46875;SDS011;32866;50.160;14.768;2022-11-30T15:23:35;32.83;;;16.23;;
46875;SDS011;32866;50.160;14.768;2022-11-30T15:26:02;26.40;;;16.33;;
46875;SDS011;32866;50.160;14.768;2022-11-30T15:28:36;30.70;;;16.53;;
46875;SDS011;32866;50.160;14.768;2022-11-30T15:31:04;28.33;;;16.43;;
46875;SDS011;32866;50.160;14.768;2022-11-30T15:33:36;31.93;;;17.97;;
46875;SDS011;32866;50.160;14.768;2022-11-30T15:36:06;30.20;;;17.27;;
46875;SDS011;32866;50.160;14.768;2022-11-30T15:38:32;32.78;;;18.13;;
46875;SDS011;32866;50.160;14.768;2022-11-30T15:41:01;28.08;;;17.20;;
46875;SDS011;32866;50.160;14.768;2022-11-30T15:43:28;29.63;;;17.90;;
46875;SDS011;32866;50.160;14.768;2022-11-30T15:46:00;33.00;;;18.50;;
46875;SDS011;32866;50.160;14.768;2022-11-30T15:48:26;28.02;;;18.00;;
46875;SDS011;32866;50.160;14.768;2022-11-30T15:51:04;29.93;;;18.10;;
46875;SDS011;32866;50.160;14.768;2022-11-30T15:53:45;28.23;;;18.33;;
46875;SDS011;32866;50.160;14.768;2022-11-30T15:56:23;35.70;;;20.23;;
46875;SDS011;32866;50.160;14.768;2022-11-30T15:58:58;29.23;;;18.27;;
46875;SDS011;32866;50.160;14.768;2022-11-30T16:01:29;34.83;;;18.90;;
46875;SDS011;32866;50.160;14.768;2022-11-30T16:04:02;32.80;;;19.17;;
46875;SDS011;32866;50.160;14.768;2022-11-30T16:09:18;39.13;;;20.25;;
46875;SDS011;32866;50.160;14.768;2022-11-30T16:11:47;35.83;;;20.60;;
46875;SDS011;32866;50.160;14.768;2022-11-30T16:14:16;37.77;;;20.97;;
46875;SDS011;32866;50.160;14.768;2022-11-30T16:16:42;41.22;;;22.73;;
46875;SDS011;32866;50.160;14.768;2022-11-30T16:19:07;42.15;;;24.95;;
46875;SDS011;32866;50.160;14.768;2022-11-30T16:21:33;44.97;;;25.20;;
46875;SDS011;32866;50.160;14.768;2022-11-30T16:23:58;47.33;;;25.50;;
46875;SDS011;32866;50.160;14.768;2022-11-30T16:26:24;45.05;;;25.15;;
46875;SDS011;32866;50.160;14.768;2022-11-30T16:28:50;46.03;;;25.83;;
46875;SDS011;32866;50.160;14.768;2022-11-30T16:31:17;46.72;;;24.30;;
46875;SDS011;32866;50.160;14.768;2022-11-30T16:33:44;44.47;;;25.53;;
46875;SDS011;32866;50.160;14.768;2022-11-30T16:36:14;49.63;;;26.53;;
46875;SDS011;32866;50.160;14.768;2022-11-30T16:38:48;49.97;;;26.17;;
46875;SDS011;32866;50.160;14.768;2022-11-30T16:43:48;59.83;;;32.77;;
46875;SDS011;32866;50.160;14.768;2022-11-30T16:46:18;75.03;;;37.70;;
46875;SDS011;32866;50.160;14.768;2022-11-30T16:48:48;63.43;;;32.10;;
46875;SDS011;32866;50.160;14.768;2022-11-30T16:53:41;54.50;;;28.33;;
46875;SDS011;32866;50.160;14.768;2022-11-30T16:56:11;56.67;;;29.58;;